createdAt,value
2023-08-13T00:02:13.888Z,98565.94
2023-08-13T00:04:42.826Z,98564.88
2023-08-13T00:07:12.629Z,98562.03
2023-08-13T00:09:43.268Z,98566.38
2023-08-13T00:12:12.396Z,98569.06
2023-08-13T00:14:41.252Z,98569.06
2023-08-13T00:17:09.921Z,98573.84
2023-08-13T00:19:38.330Z,98578.19
2023-08-13T00:22:08.302Z,98575.97
2023-08-13T00:24:38.276Z,98569.94
2023-08-13T00:27:06.808Z,98574.31
2023-08-13T00:29:35.384Z,98579.69
2023-08-13T00:32:04.031Z,98579.69
2023-08-13T00:34:32.502Z,98580.91
2023-08-13T00:37:00.938Z,98587.13
2023-08-13T00:39:29.382Z,98581.06
2023-08-13T00:41:59.305Z,98577.38
2023-08-13T00:44:27.917Z,98579.22
2023-08-13T00:46:56.367Z,98571.16
2023-08-13T00:49:25.421Z,98572.97
2023-08-13T00:51:53.972Z,98574.00
2023-08-13T00:54:22.867Z,98577.75
2023-08-13T00:56:51.776Z,98577.91
2023-08-13T00:59:22.202Z,98580.59
2023-08-13T01:01:50.856Z,98574.38
2023-08-13T01:04:19.314Z,98571.69
2023-08-13T01:06:54.293Z,98580.59
2023-08-13T01:09:29.634Z,98575.75
2023-08-13T01:12:04.225Z,98570.38
2023-08-13T01:14:40.024Z,98574.75
2023-08-13T01:17:08.862Z,98581.81
2023-08-13T01:19:37.300Z,98569.16
2023-08-13T01:22:06.593Z,98574.94
2023-08-13T01:24:36.696Z,98570.38
2023-08-13T01:27:11.899Z,98574.94
2023-08-13T01:29:44.704Z,98571.47
2023-08-13T01:32:14.611Z,98571.66
2023-08-13T01:34:43.267Z,98569.53
2023-08-13T01:37:11.933Z,98569.69
2023-08-13T01:39:41.875Z,98563.28
2023-08-13T01:42:11.360Z,98570.34
2023-08-13T01:44:40.079Z,98569.16
2023-08-13T01:47:08.534Z,98562.56
2023-08-13T01:49:36.968Z,98563.56
2023-08-13T01:52:05.823Z,98569.81
2023-08-13T01:54:34.239Z,98568.31
2023-08-13T01:57:04.373Z,98569.53
2023-08-13T01:59:32.879Z,98563.09
2023-08-13T02:02:02.121Z,98560.03
2023-08-13T02:04:30.985Z,98562.72
2023-08-13T02:06:59.578Z,98570.00
2023-08-13T02:09:28.295Z,98570.81
2023-08-13T02:11:56.985Z,98569.16
2023-08-13T02:14:26.798Z,98567.28
2023-08-13T02:16:55.689Z,98573.50
2023-08-13T02:19:24.183Z,98561.06
2023-08-13T02:21:52.605Z,98571.66
2023-08-13T02:24:21.256Z,98572.50
2023-08-13T02:26:49.946Z,98572.84
2023-08-13T02:29:18.382Z,98576.56
2023-08-13T02:31:48.423Z,98580.31
2023-08-13T02:34:16.811Z,98570.34
2023-08-13T02:36:45.188Z,98571.19
2023-08-13T02:39:13.657Z,98573.34
2023-08-13T02:41:42.002Z,98568.63
2023-08-13T02:44:10.426Z,98565.06
2023-08-13T02:46:38.883Z,98566.47
2023-08-13T02:49:08.698Z,98569.16
2023-08-13T02:51:37.107Z,98568.13
2023-08-13T02:54:05.913Z,98565.91
2023-08-13T02:56:34.330Z,98571.31
2023-08-13T02:59:02.992Z,98567.66
2023-08-13T03:01:31.412Z,98561.44
2023-08-13T03:04:01.993Z,98564.13
2023-08-13T03:06:32.141Z,98571.47
2023-08-13T03:09:00.922Z,98567.47
2023-08-13T03:11:29.467Z,98557.06
2023-08-13T03:13:58.025Z,98564.44
2023-08-13T03:16:26.572Z,98562.56
2023-08-13T03:18:55.196Z,98570.34
2023-08-13T03:21:23.937Z,98567.47
2023-08-13T03:23:53.807Z,98569.53
2023-08-13T03:26:22.403Z,98564.13
2023-08-13T03:28:50.866Z,98559.38
2023-08-13T03:31:19.583Z,98556.34
2023-08-13T03:33:47.937Z,98560.56
2023-08-13T03:36:16.430Z,98565.34
2023-08-13T03:38:44.843Z,98569.03
2023-08-13T03:41:14.698Z,98563.66
2023-08-13T03:43:43.292Z,98565.81
2023-08-13T03:46:11.824Z,98565.44
2023-08-13T03:48:40.253Z,98568.31
2023-08-13T03:51:08.768Z,98567.84
2023-08-13T03:53:37.243Z,98568.41
2023-08-13T03:56:08.261Z,98571.09
2023-08-13T03:58:39.700Z,98573.97
2023-08-13T04:01:09.009Z,98574.31
2023-08-13T04:03:37.855Z,98579.72
2023-08-13T04:06:06.463Z,98574.69
2023-08-13T04:08:36.719Z,98578.03
2023-08-13T04:11:07.356Z,98586.47
2023-08-13T04:13:37.129Z,98587.38
2023-08-13T04:16:06.108Z,98586.19
2023-08-13T04:18:34.755Z,98582.28
2023-08-13T04:21:03.232Z,98586.47
2023-08-13T04:23:32.131Z,98576.38
2023-08-13T04:26:00.720Z,98589.47
2023-08-13T04:28:29.157Z,98589.28
2023-08-13T04:30:59.319Z,98587.81
2023-08-13T04:33:27.756Z,98583.91
2023-08-13T04:35:56.637Z,98583.91
2023-08-13T04:38:25.060Z,98596.56
2023-08-13T04:40:53.530Z,98592.16
2023-08-13T04:43:21.961Z,98585.94
2023-08-13T04:45:50.420Z,98588.47
2023-08-13T04:48:41.234Z,98596.56
2023-08-13T04:51:11.311Z,98592.81
2023-08-13T04:53:39.736Z,98601.94
2023-08-13T04:56:08.721Z,98600.91
2023-08-13T04:58:37.286Z,98599.88
2023-08-13T05:01:07.393Z,98597.19
2023-08-13T05:03:35.787Z,98607.13
2023-08-13T05:06:04.267Z,98605.47
2023-08-13T05:08:34.035Z,98595.53
2023-08-13T05:11:02.433Z,98602.78
2023-08-13T05:13:30.900Z,98603.59
2023-08-13T05:15:59.451Z,98604.81
2023-08-13T05:18:28.028Z,98605.84
2023-08-13T05:20:56.456Z,98611.03
2023-08-13T05:23:24.828Z,98611.03
2023-08-13T05:25:55.665Z,98614.75
2023-08-13T05:28:24.091Z,98618.44
2023-08-13T05:30:52.718Z,98614.75
2023-08-13T05:33:21.204Z,98613.72
2023-08-13T05:35:49.568Z,98617.44
2023-08-13T05:38:18.095Z,98609.16
2023-08-13T05:40:46.568Z,98615.75
2023-08-13T05:43:16.482Z,98607.50
2023-08-13T05:45:44.877Z,98608.34
2023-08-13T05:48:13.327Z,98616.41
2023-08-13T05:50:41.801Z,98605.63
2023-08-13T05:53:10.315Z,98607.50
2023-08-13T05:55:38.799Z,98607.34
2023-08-13T05:58:07.694Z,98606.47
2023-08-13T06:00:38.608Z,98602.56
2023-08-13T06:03:07.397Z,98610.84
2023-08-13T06:05:35.994Z,98606.47
2023-08-13T06:08:05.151Z,98616.41
2023-08-13T06:10:33.557Z,98611.84
2023-08-13T06:13:02.078Z,98613.34
2023-08-13T06:15:30.821Z,98617.91
2023-08-13T06:18:00.672Z,98619.59
2023-08-13T06:20:29.452Z,98613.34
2023-08-13T06:22:58.115Z,98614.38
2023-08-13T06:25:26.619Z,98621.81
2023-08-13T06:27:55.195Z,98615.41
2023-08-13T06:30:25.301Z,98617.91
2023-08-13T06:32:54.034Z,98615.22
2023-08-13T06:35:24.008Z,98610.66
2023-08-13T06:38:01.988Z,98613.34
2023-08-13T06:40:31.411Z,98613.34
2023-08-13T06:42:59.780Z,98614.38
2023-08-13T06:45:28.741Z,98615.03
2023-08-13T06:47:58.610Z,98607.13
2023-08-13T06:50:29.168Z,98615.22
2023-08-13T06:52:57.738Z,98609.66
2023-08-13T06:55:26.255Z,98598.88
2023-08-13T06:57:54.717Z,98615.03
2023-08-13T07:00:35.044Z,98614.00
2023-08-13T07:03:08.161Z,98617.38
2023-08-13T07:05:38.262Z,98628.16
2023-08-13T07:08:07.268Z,98632.88
2023-08-13T07:10:36.010Z,98626.00
2023-08-13T07:13:04.793Z,98637.31
2023-08-13T07:15:33.237Z,98640.31
2023-08-13T07:18:02.255Z,98635.56
2023-08-13T07:20:30.808Z,98638.28
2023-08-13T07:23:01.947Z,98637.28
2023-08-13T07:25:30.536Z,98642.00
2023-08-13T07:27:59.011Z,98640.59
2023-08-13T07:30:28.245Z,98651.38
2023-08-13T07:32:56.737Z,98643.50
2023-08-13T07:35:25.820Z,98651.09
2023-08-13T07:37:54.668Z,98641.81
2023-08-13T07:40:24.537Z,98645.34
2023-08-13T07:42:53.499Z,98646.66
2023-08-13T07:45:21.930Z,98652.41
2023-08-13T07:47:51.080Z,98646.66
2023-08-13T07:50:19.708Z,98646.28
2023-08-13T07:52:48.135Z,98648.91
2023-08-13T07:55:16.512Z,98643.06
2023-08-13T07:57:46.349Z,98647.06
2023-08-13T08:00:17.957Z,98647.41
2023-08-13T08:02:46.450Z,98645.91
2023-08-13T08:05:14.901Z,98647.78
2023-08-13T08:07:42.288Z,98648.91
2023-08-13T08:10:10.985Z,98651.75
2023-08-13T08:12:39.435Z,98657.97
2023-08-13T08:15:10.234Z,98649.88
2023-08-13T08:17:39.009Z,98649.03
2023-08-13T08:20:09.569Z,98659.16
2023-08-13T08:22:38.036Z,98659.31
2023-08-13T08:25:10.193Z,98654.66
2023-08-13T08:27:38.706Z,98661.09
2023-08-13T08:30:10.263Z,98651.59
2023-08-13T08:32:38.725Z,98651.91
2023-08-13T08:35:08.573Z,98656.38
2023-08-13T08:37:37.135Z,98650.72
2023-08-13T08:40:06.727Z,98657.66
2023-08-13T08:42:35.303Z,98656.28
2023-08-13T08:45:03.802Z,98658.78
2023-08-13T08:47:34.374Z,98652.28
2023-08-13T08:50:05.179Z,98648.44
2023-08-13T08:52:34.846Z,98648.44
2023-08-13T08:55:04.197Z,98641.50
2023-08-13T08:57:32.721Z,98643.53
2023-08-13T09:00:01.924Z,98645.22
2023-08-13T09:02:34.494Z,98650.25
2023-08-13T09:05:03.060Z,98649.03
2023-08-13T09:07:32.488Z,98643.44
2023-08-13T09:10:01.179Z,98639.25
2023-08-13T09:12:30.882Z,98641.59
2023-08-13T09:14:59.296Z,98635.00
2023-08-13T09:17:28.131Z,98634.06
2023-08-13T09:19:58.666Z,98627.47
2023-08-13T09:22:27.045Z,98634.22
2023-08-13T09:24:55.520Z,98630.16
2023-08-13T09:27:24.008Z,98629.81
2023-08-13T09:29:55.581Z,98627.47
2023-08-13T09:32:24.100Z,98639.09
2023-08-13T09:34:54.204Z,98627.47
2023-08-13T09:37:25.815Z,98634.16
2023-08-13T09:39:54.511Z,98633.16
2023-08-13T09:42:23.247Z,98631.16
2023-08-13T09:44:52.912Z,98627.28
2023-08-13T09:47:22.137Z,98626.28
2023-08-13T09:49:50.564Z,98623.75
2023-08-13T09:52:19.210Z,98618.44
2023-08-13T09:54:50.127Z,98630.88
2023-08-13T09:57:19.248Z,98624.84
2023-08-13T09:59:47.936Z,98621.59
2023-08-13T10:02:17.090Z,98628.09
2023-08-13T10:04:46.334Z,98622.38
2023-08-13T10:07:14.862Z,98615.13
2023-08-13T10:09:43.613Z,98619.31
2023-08-13T10:12:13.612Z,98621.81
2023-08-13T10:14:42.325Z,98615.22
2023-08-13T10:17:10.954Z,98610.63
2023-08-13T10:19:40.988Z,98610.63
2023-08-13T10:22:11.641Z,98619.31
2023-08-13T10:24:41.398Z,98619.97
2023-08-13T10:27:09.889Z,98613.09
2023-08-13T10:29:42.741Z,98617.44
2023-08-13T10:32:15.424Z,98621.50
2023-08-13T10:34:47.897Z,98618.47
2023-08-13T10:37:20.316Z,98611.00
2023-08-13T10:39:49.016Z,98615.22
2023-08-13T10:42:57.211Z,98615.53
2023-08-13T10:45:29.216Z,98618.06
2023-08-13T10:47:58.999Z,98624.44
2023-08-13T10:50:35.103Z,98610.88
2023-08-13T10:53:07.049Z,98614.97
2023-08-13T10:55:37.709Z,98614.53
2023-08-13T10:58:06.612Z,98614.53
2023-08-13T11:00:43.877Z,98613.66
2023-08-13T11:03:21.047Z,98606.22
2023-08-13T11:05:50.166Z,98611.63
2023-08-13T11:08:21.125Z,98612.16
2023-08-13T11:10:54.633Z,98612.66
2023-08-13T11:13:23.219Z,98615.34
2023-08-13T11:15:53.983Z,98616.34
2023-08-13T11:18:22.636Z,98617.22
2023-08-13T11:20:51.824Z,98617.03
2023-08-13T11:23:21.041Z,98608.38
2023-08-13T11:25:49.974Z,98620.75
2023-08-13T11:28:21.861Z,98612.47
2023-08-13T11:30:52.000Z,98607.94
2023-08-13T11:33:22.042Z,98600.84
2023-08-13T11:35:50.624Z,98607.94
2023-08-13T11:38:19.931Z,98606.22
2023-08-13T11:40:48.861Z,98605.22
2023-08-13T11:43:20.702Z,98610.25
2023-08-13T11:45:50.536Z,98598.59
2023-08-13T11:48:24.008Z,98608.19
2023-08-13T11:51:13.121Z,98602.78
2023-08-13T11:53:46.961Z,98605.41
2023-08-13T11:56:17.241Z,98610.63
2023-08-13T11:58:45.906Z,98615.06
2023-08-13T12:01:15.318Z,98610.78
2023-08-13T12:03:46.205Z,98598.16
2023-08-13T12:06:14.896Z,98601.31
2023-08-13T12:08:46.258Z,98599.66
2023-08-13T12:11:14.812Z,98594.81
2023-08-13T12:13:43.501Z,98602.44
2023-08-13T12:16:12.052Z,98599.75
2023-08-13T12:18:40.637Z,98591.44
2023-08-13T12:21:10.362Z,98589.78
2023-08-13T12:23:38.815Z,98593.16
2023-08-13T12:26:07.260Z,98593.16
2023-08-13T12:28:35.734Z,98594.97
2023-08-13T12:31:04.287Z,98592.66
2023-08-13T12:33:33.185Z,98587.09
2023-08-13T12:36:01.797Z,98593.50
2023-08-13T12:38:33.100Z,98587.16
2023-08-13T12:41:01.770Z,98581.50
2023-08-13T12:43:30.526Z,98584.47
2023-08-13T12:45:59.223Z,98580.41
2023-08-13T12:48:28.163Z,98575.81
2023-08-13T12:50:57.324Z,98578.81
2023-08-13T12:53:26.172Z,98582.50
2023-08-13T12:55:56.211Z,98580.56
2023-08-13T12:58:24.988Z,98575.19
2023-08-13T13:00:53.720Z,98573.03
2023-08-13T13:03:22.444Z,98569.41
2023-08-13T13:05:51.664Z,98574.69
2023-08-13T13:08:20.327Z,98568.84
2023-08-13T13:10:49.202Z,98572.09
2023-08-13T13:13:19.360Z,98578.16
2023-08-13T13:15:48.098Z,98571.63
2023-08-13T13:18:16.865Z,98566.59
2023-08-13T13:20:45.575Z,98566.97
2023-08-13T13:23:14.421Z,98571.16
2023-08-13T13:25:43.093Z,98573.59
2023-08-13T13:28:11.762Z,98569.22
2023-08-13T13:30:41.825Z,98560.31
2023-08-13T13:33:10.613Z,98558.22
2023-08-13T13:35:39.371Z,98556.78
2023-08-13T13:38:09.301Z,98552.50
2023-08-13T13:40:38.044Z,98552.66
2023-08-13T13:43:07.022Z,98547.25
2023-08-13T13:45:35.726Z,98549.59
2023-08-13T13:48:06.263Z,98549.97
2023-08-13T13:50:35.673Z,98545.88
2023-08-13T13:53:19.157Z,98540.84
2023-08-13T13:55:49.854Z,98534.06
2023-08-13T13:58:18.624Z,98535.25
2023-08-13T14:00:50.206Z,98534.59
2023-08-13T14:03:20.881Z,98537.31
2023-08-13T14:05:53.673Z,98536.66
2023-08-13T14:08:23.102Z,98534.16
2023-08-13T14:10:51.972Z,98538.88
2023-08-13T14:13:20.714Z,98535.81
2023-08-13T14:15:49.670Z,98536.19
2023-08-13T14:18:19.698Z,98522.44
2023-08-13T14:20:51.124Z,98522.66
2023-08-13T14:23:19.830Z,98530.19
2023-08-13T14:25:48.695Z,98528.88
2023-08-13T14:28:17.491Z,98523.97
2023-08-13T14:30:46.153Z,98522.91
2023-08-13T14:33:14.955Z,98518.56
2023-08-13T14:35:45.187Z,98523.81
2023-08-13T14:38:14.016Z,98521.84
2023-08-13T14:40:42.788Z,98522.09
2023-08-13T14:43:11.649Z,98520.78
2023-08-13T14:45:40.517Z,98529.94
2023-08-13T14:48:09.536Z,98530.47
2023-08-13T14:50:38.351Z,98508.06
2023-08-13T14:53:08.589Z,98518.59
2023-08-13T14:55:37.671Z,98509.09
2023-08-13T14:58:06.675Z,98513.84
2023-08-13T15:00:35.325Z,98504.84
2023-08-13T15:03:05.743Z,98496.94
2023-08-13T15:05:36.043Z,98513.00
2023-08-13T15:08:05.062Z,98497.41
2023-08-13T15:10:35.847Z,98511.03
2023-08-13T15:13:04.774Z,98506.00
2023-08-13T15:15:33.554Z,98509.00
2023-08-13T15:18:02.308Z,98510.03
2023-08-13T15:20:31.135Z,98514.28
2023-08-13T15:22:59.870Z,98508.38
2023-08-13T15:25:33.055Z,98504.38
2023-08-13T15:28:09.680Z,98495.44
2023-08-13T15:30:38.488Z,98505.25
2023-08-13T15:33:07.373Z,98501.31
2023-08-13T15:35:51.592Z,98495.38
2023-08-13T15:38:22.781Z,98492.13
2023-08-13T15:40:51.861Z,98483.16
2023-08-13T15:43:22.228Z,98495.84
2023-08-13T15:45:50.940Z,98501.88
2023-08-13T15:48:19.666Z,98495.06
2023-08-13T15:50:48.377Z,98493.66
2023-08-13T15:53:17.071Z,98495.97
2023-08-13T15:55:46.041Z,98492.88
2023-08-13T15:58:14.719Z,98489.81
2023-08-13T16:00:45.171Z,98489.19
2023-08-13T16:03:13.996Z,98491.03
2023-08-13T16:05:42.760Z,98488.09
2023-08-13T16:08:11.493Z,98499.72
2023-08-13T16:10:41.207Z,98501.38
2023-08-13T16:13:09.993Z,98502.88
2023-08-13T16:15:40.119Z,98497.63
2023-08-13T16:18:10.323Z,98503.91
2023-08-13T16:20:39.125Z,98497.19
2023-08-13T16:23:07.896Z,98494.31
2023-08-13T16:25:36.954Z,98489.09
2023-08-13T16:28:05.999Z,98498.69
2023-08-13T16:30:34.837Z,98493.50
2023-08-13T16:33:03.638Z,98488.28
2023-08-13T16:35:34.040Z,98487.22
2023-08-13T16:38:02.833Z,98488.09
2023-08-13T16:40:31.529Z,98492.84
2023-08-13T16:43:07.486Z,98494.06
2023-08-13T16:45:39.138Z,98490.13
2023-08-13T16:48:08.171Z,98484.78
2023-08-13T16:50:38.321Z,98496.81
2023-08-13T16:53:07.025Z,98502.03
2023-08-13T16:55:35.756Z,98500.56
2023-08-13T16:58:04.709Z,98497.84
2023-08-13T17:00:33.407Z,98500.09
2023-08-13T17:03:02.127Z,98493.03
2023-08-13T17:05:31.970Z,98498.88
2023-08-13T17:08:02.287Z,98498.41
2023-08-13T17:10:31.079Z,98504.03
2023-08-13T17:12:59.930Z,98497.59
2023-08-13T17:15:28.878Z,98501.13
2023-08-13T17:17:57.628Z,98503.38
2023-08-13T17:20:26.922Z,98498.81
2023-08-13T17:22:55.669Z,98503.16
2023-08-13T17:25:25.882Z,98511.25
2023-08-13T17:27:54.500Z,98504.22
2023-08-13T17:30:24.123Z,98506.91
2023-08-13T17:32:52.983Z,98512.97
2023-08-13T17:35:22.057Z,98513.97
2023-08-13T17:37:50.754Z,98513.97
2023-08-13T17:40:19.644Z,98521.06
2023-08-13T17:42:49.796Z,98520.22
2023-08-13T17:45:18.699Z,98518.34
2023-08-13T17:47:47.727Z,98522.31
2023-08-13T17:50:16.608Z,98519.00
2023-08-13T17:52:45.466Z,98527.47
2023-08-13T17:55:14.616Z,98529.59
2023-08-13T17:57:43.309Z,98529.22
2023-08-13T18:00:15.205Z,98525.03
2023-08-13T18:02:44.029Z,98530.81
2023-08-13T18:05:13.178Z,98537.91
2023-08-13T18:07:41.957Z,98546.00
2023-08-13T18:10:11.232Z,98553.06
2023-08-13T18:12:39.905Z,98562.00
2023-08-13T18:15:09.026Z,98561.16
2023-08-13T18:17:39.205Z,98558.28
2023-08-13T18:20:09.794Z,98569.91
2023-08-13T18:22:41.684Z,98568.22
2023-08-13T18:25:11.740Z,98569.09
2023-08-13T18:27:41.168Z,98565.34
2023-08-13T18:30:10.682Z,98562.81
2023-08-13T18:32:40.956Z,98571.97
2023-08-13T18:35:10.142Z,98573.44
2023-08-13T18:37:39.057Z,98566.56
2023-08-13T18:40:10.909Z,98576.72
2023-08-13T18:42:39.706Z,98571.97
2023-08-13T18:45:09.193Z,98572.34
2023-08-13T18:47:39.375Z,98579.41
2023-08-13T18:50:09.208Z,98574.50
2023-08-13T18:52:38.667Z,98581.56
2023-08-13T18:55:08.320Z,98580.72
2023-08-13T18:57:37.067Z,98585.09
2023-08-13T19:00:07.493Z,98582.81
2023-08-13T19:02:36.298Z,98586.50
2023-08-13T19:05:07.251Z,98585.84
2023-08-13T19:07:36.024Z,98586.50
2023-08-13T19:10:05.218Z,98586.84
2023-08-13T19:12:34.495Z,98585.19
2023-08-13T19:15:03.310Z,98584.16
2023-08-13T19:17:32.049Z,98585.84
2023-08-13T19:20:00.866Z,98584.97
2023-08-13T19:22:30.903Z,98589.97
2023-08-13T19:24:59.710Z,98592.41
2023-08-13T19:27:28.428Z,98594.38
2023-08-13T19:29:57.493Z,98597.25
2023-08-13T19:32:26.431Z,98593.34
2023-08-13T19:34:55.302Z,98589.25
2023-08-13T19:37:24.134Z,98587.16
2023-08-13T19:39:54.258Z,98577.00
2023-08-13T19:42:23.057Z,98578.88
2023-08-13T19:44:51.836Z,98575.53
2023-08-13T19:47:20.535Z,98578.06
2023-08-13T19:49:49.476Z,98589.97
2023-08-13T19:52:18.426Z,98592.50
2023-08-13T19:54:47.257Z,98595.13
2023-08-13T19:57:17.363Z,98591.97
2023-08-13T19:59:46.096Z,98588.63
2023-08-13T20:02:14.915Z,98589.81
2023-08-13T20:04:44.079Z,98585.13
2023-08-13T20:07:12.847Z,98587.56
2023-08-13T20:09:41.779Z,98589.34
2023-08-13T20:12:10.499Z,98596.16
2023-08-13T20:14:40.708Z,98596.31
2023-08-13T20:17:09.430Z,98600.91
2023-08-13T20:19:38.141Z,98605.66
2023-08-13T20:22:07.308Z,98602.31
2023-08-13T20:24:36.071Z,98595.78
2023-08-13T20:27:05.144Z,98596.69
2023-08-13T20:29:33.808Z,98600.78
2023-08-13T20:32:03.997Z,98593.44
2023-08-13T20:34:32.920Z,98605.66
2023-08-13T20:37:01.654Z,98603.69
2023-08-13T20:39:30.437Z,98606.13
2023-08-13T20:41:59.363Z,98602.94
2023-08-13T20:44:28.249Z,98604.19
2023-08-13T20:46:57.052Z,98616.81
2023-08-13T20:49:27.207Z,98610.59
2023-08-13T20:51:55.965Z,98613.13
2023-08-13T20:54:24.762Z,98614.13
2023-08-13T20:56:54.702Z,98614.13
2023-08-13T20:59:23.376Z,98611.44
2023-08-13T21:01:52.121Z,98615.00
2023-08-13T21:04:20.795Z,98619.53
2023-08-13T21:06:50.856Z,98609.75
2023-08-13T21:09:19.664Z,98618.91
2023-08-13T21:11:48.426Z,98617.03
2023-08-13T21:14:17.149Z,98617.59
2023-08-13T21:16:45.880Z,98612.03
2023-08-13T21:19:14.609Z,98619.75
2023-08-13T21:21:43.430Z,98618.91
2023-08-13T21:24:13.474Z,98617.22
2023-08-13T21:26:42.256Z,98619.75
2023-08-13T21:29:11.033Z,98611.81
2023-08-13T21:31:39.712Z,98610.81
2023-08-13T21:34:08.631Z,98609.31
2023-08-13T21:36:37.330Z,98607.44
2023-08-13T21:39:06.432Z,98609.31
2023-08-13T21:41:36.582Z,98607.44
2023-08-13T21:44:05.815Z,98610.16
2023-08-13T21:46:34.553Z,98608.28
2023-08-13T21:49:03.417Z,98610.16
2023-08-13T21:51:32.144Z,98607.44
2023-08-13T21:54:00.989Z,98613.22
2023-08-13T21:56:29.679Z,98617.59
2023-08-13T21:58:59.982Z,98617.59
2023-08-13T22:01:28.696Z,98614.91
2023-08-13T22:03:59.562Z,98622.81
2023-08-13T22:06:28.366Z,98624.66
2023-08-13T22:08:58.540Z,98621.94
2023-08-13T22:11:27.485Z,98623.00
2023-08-13T22:13:56.304Z,98625.69
2023-08-13T22:16:26.756Z,98623.00
2023-08-13T22:18:55.817Z,98623.00
2023-08-13T22:21:24.497Z,98618.63
2023-08-13T22:23:53.289Z,98623.00
2023-08-13T22:26:22.322Z,98609.66
2023-08-13T22:28:51.221Z,98609.66
2023-08-13T22:31:20.994Z,98607.84
2023-08-13T22:33:51.243Z,98603.44
2023-08-13T22:36:20.000Z,98601.56
2023-08-13T22:38:48.749Z,98595.34
2023-08-13T22:41:17.505Z,98598.03
2023-08-13T22:43:46.115Z,98595.53
2023-08-13T22:46:14.917Z,98597.41
2023-08-13T22:48:43.755Z,98612.97
2023-08-13T22:51:13.894Z,98606.88
2023-08-13T22:53:42.663Z,98609.56
2023-08-13T22:56:11.356Z,98615.16
2023-08-13T22:58:40.182Z,98611.44
2023-08-13T23:01:09.086Z,98607.91
2023-08-13T23:03:37.993Z,98607.03
2023-08-13T23:06:06.913Z,98612.28
2023-08-13T23:08:36.945Z,98606.03
2023-08-13T23:11:05.701Z,98618.69
2023-08-13T23:13:34.500Z,98612.44
2023-08-13T23:16:03.256Z,98611.63
2023-08-13T23:18:32.207Z,98609.75
2023-08-13T23:21:01.117Z,98601.66
2023-08-13T23:23:30.097Z,98597.28
2023-08-13T23:26:00.209Z,98598.31
2023-08-13T23:28:28.870Z,98592.06
2023-08-13T23:30:57.761Z,98597.47
2023-08-13T23:33:26.578Z,98595.78
2023-08-13T23:35:55.461Z,98592.06
2023-08-13T23:38:24.257Z,98596.63
2023-08-13T23:40:53.417Z,98593.09
2023-08-13T23:43:23.925Z,98589.56
2023-08-13T23:45:52.679Z,98601.19
2023-08-13T23:48:21.403Z,98594.13
2023-08-13T23:50:55.738Z,98591.22
2023-08-13T23:53:24.957Z,98596.84
2023-08-13T23:55:53.763Z,98592.28
2023-08-13T23:58:23.939Z,98600.38
